createdAt,value
2024-02-29T00:02:13.093Z,19.00
2024-02-29T00:04:39.751Z,18.81
2024-02-29T00:07:06.725Z,19.13
2024-02-29T00:09:34.053Z,18.44
2024-02-29T00:12:00.779Z,18.85
2024-02-29T00:14:28.124Z,19.12
2024-02-29T00:16:55.016Z,19.12
2024-02-29T00:19:21.673Z,18.97
2024-02-29T00:21:48.531Z,19.05
2024-02-29T00:24:15.285Z,18.51
2024-02-29T00:26:44.995Z,18.63
2024-02-29T00:29:11.607Z,18.57
2024-02-29T00:31:44.574Z,19.11
2024-02-29T00:34:14.287Z,19.07
2024-02-29T00:36:41.221Z,19.22
2024-02-29T00:39:14.943Z,19.13
2024-02-29T00:41:42.652Z,18.94
2024-02-29T00:44:10.534Z,19.43
2024-02-29T00:46:41.053Z,19.38
2024-02-29T00:49:07.821Z,19.25
2024-02-29T00:51:34.567Z,19.32
2024-02-29T00:54:01.189Z,19.47
2024-02-29T00:56:28.097Z,19.14
2024-02-29T00:58:54.694Z,19.15
2024-02-29T01:01:21.498Z,18.56
2024-02-29T01:03:48.333Z,19.14
2024-02-29T01:06:14.998Z,18.36
2024-02-29T01:08:41.688Z,18.95
2024-02-29T01:11:08.377Z,18.77
2024-02-29T01:13:36.047Z,18.22
2024-02-29T01:16:02.732Z,18.43
2024-02-29T01:18:29.426Z,18.87
2024-02-29T01:20:56.027Z,18.52
2024-02-29T01:23:22.625Z,18.06
2024-02-29T01:25:49.423Z,18.53
2024-02-29T01:28:16.080Z,18.07
2024-02-29T01:30:42.767Z,17.81
2024-02-29T01:33:09.441Z,17.96
2024-02-29T01:35:36.068Z,17.85
2024-02-29T01:38:02.717Z,18.27
2024-02-29T01:40:29.363Z,17.77
2024-02-29T01:42:56.027Z,17.43
2024-02-29T01:45:22.758Z,17.49
2024-02-29T01:47:49.462Z,17.23
2024-02-29T01:50:17.417Z,17.34
2024-02-29T01:52:46.707Z,16.86
2024-02-29T01:55:16.557Z,17.29
2024-02-29T01:57:44.755Z,17.24
2024-02-29T02:00:12.194Z,16.55
2024-02-29T02:02:39.616Z,16.65
2024-02-29T02:05:07.831Z,16.98
2024-02-29T02:07:37.773Z,16.76
2024-02-29T02:10:08.202Z,16.99
2024-02-29T02:12:35.647Z,16.85
2024-02-29T02:15:05.589Z,16.72
2024-02-29T02:17:33.582Z,16.38
2024-02-29T02:20:01.879Z,16.67
2024-02-29T02:22:29.790Z,16.39
2024-02-29T02:24:57.150Z,16.80
2024-02-29T02:27:24.113Z,16.43
2024-02-29T02:29:50.742Z,16.49
2024-02-29T02:32:17.387Z,16.47
2024-02-29T02:34:44.085Z,16.60
2024-02-29T02:37:10.810Z,16.00
2024-02-29T02:39:37.751Z,16.03
2024-02-29T02:42:04.644Z,15.75
2024-02-29T02:44:31.284Z,16.11
2024-02-29T02:46:57.919Z,15.72
2024-02-29T02:49:24.575Z,15.90
2024-02-29T02:51:51.244Z,15.36
2024-02-29T02:54:17.919Z,15.43
2024-02-29T02:56:44.521Z,15.58
2024-02-29T02:59:12.503Z,15.47
2024-02-29T03:01:39.198Z,15.53
2024-02-29T03:04:06.027Z,15.32
2024-02-29T03:06:32.848Z,15.50
2024-02-29T03:08:59.641Z,15.28
2024-02-29T03:11:26.533Z,15.86
2024-02-29T03:13:54.363Z,15.58
2024-02-29T03:16:25.004Z,15.46
2024-02-29T03:18:51.975Z,15.45
2024-02-29T03:21:19.089Z,15.80
2024-02-29T03:23:45.741Z,16.30
2024-02-29T03:26:12.377Z,16.23
2024-02-29T03:28:39.145Z,15.79
2024-02-29T03:31:10.930Z,16.07
2024-02-29T03:33:37.652Z,16.34
2024-02-29T03:36:04.466Z,15.86
2024-02-29T03:38:31.317Z,16.06
2024-02-29T03:40:58.404Z,16.17
2024-02-29T03:43:25.040Z,16.61
2024-02-29T03:45:51.679Z,16.24
2024-02-29T03:48:18.299Z,16.57
2024-02-29T03:50:44.931Z,16.75
2024-02-29T03:53:12.010Z,16.72
2024-02-29T03:55:39.114Z,16.67
2024-02-29T03:58:05.877Z,16.65
2024-02-29T04:00:32.631Z,16.89
2024-02-29T04:02:59.283Z,17.19
2024-02-29T04:05:26.007Z,17.61
2024-02-29T04:07:54.737Z,17.33
2024-02-29T04:10:21.564Z,17.52
2024-02-29T04:12:48.699Z,17.50
2024-02-29T04:15:16.120Z,17.43
2024-02-29T04:17:42.736Z,17.48
2024-02-29T04:20:09.919Z,17.48
2024-02-29T04:22:36.723Z,17.40
2024-02-29T04:25:06.180Z,17.76
2024-02-29T04:27:32.911Z,17.83
2024-02-29T04:29:59.603Z,18.26
2024-02-29T04:32:26.209Z,17.64
2024-02-29T04:34:53.802Z,18.25
2024-02-29T04:37:20.433Z,18.16
2024-02-29T04:39:47.196Z,18.01
2024-02-29T04:42:13.876Z,17.75
2024-02-29T04:44:40.483Z,17.97
2024-02-29T04:47:08.207Z,17.91
2024-02-29T04:49:34.900Z,18.24
2024-02-29T04:52:01.665Z,17.84
2024-02-29T04:54:28.386Z,18.08
2024-02-29T04:56:55.064Z,18.12
2024-02-29T04:59:21.663Z,17.97
2024-02-29T05:01:48.579Z,18.32
2024-02-29T05:04:15.436Z,17.84
2024-02-29T05:06:42.311Z,17.17
2024-02-29T05:09:08.929Z,17.92
2024-02-29T05:11:38.044Z,18.52
2024-02-29T05:14:06.505Z,18.20
2024-02-29T05:16:33.226Z,18.04
2024-02-29T05:18:59.918Z,18.31
2024-02-29T05:21:27.075Z,18.73
2024-02-29T05:23:54.816Z,18.08
2024-02-29T05:26:21.427Z,17.94
2024-02-29T05:28:48.395Z,17.98
2024-02-29T05:31:15.315Z,18.31
2024-02-29T05:33:42.575Z,18.50
2024-02-29T05:36:15.240Z,18.03
2024-02-29T05:38:41.896Z,18.39
2024-02-29T05:41:08.581Z,18.57
2024-02-29T05:43:36.346Z,18.35
2024-02-29T05:46:03.827Z,18.31
2024-02-29T05:48:35.611Z,18.30
2024-02-29T05:51:04.342Z,18.12
2024-02-29T05:53:31.240Z,18.19
2024-02-29T05:55:57.880Z,17.93
2024-02-29T05:58:25.905Z,18.13
2024-02-29T06:00:52.608Z,17.97
2024-02-29T06:03:19.285Z,17.78
2024-02-29T06:05:45.986Z,18.19
2024-02-29T06:08:16.264Z,18.10
2024-02-29T06:10:47.842Z,18.34
2024-02-29T06:13:15.388Z,17.82
2024-02-29T06:15:43.195Z,18.29
2024-02-29T06:18:11.864Z,18.76
2024-02-29T06:20:38.696Z,18.82
2024-02-29T06:23:06.023Z,18.33
2024-02-29T06:25:33.088Z,18.26
2024-02-29T06:27:59.762Z,18.02
2024-02-29T06:30:32.853Z,18.15
2024-02-29T06:33:00.165Z,17.86
2024-02-29T06:35:27.580Z,17.67
2024-02-29T06:37:54.366Z,17.22
2024-02-29T06:40:22.997Z,17.91
2024-02-29T06:42:50.152Z,17.75
2024-02-29T06:45:17.890Z,17.58
2024-02-29T06:47:45.734Z,17.64
2024-02-29T06:50:13.894Z,18.07
2024-02-29T06:52:40.792Z,17.40
2024-02-29T06:55:11.326Z,17.04
2024-02-29T06:57:38.816Z,17.50
2024-02-29T07:00:07.394Z,17.31
2024-02-29T07:02:34.503Z,17.58
2024-02-29T07:05:01.300Z,17.32
2024-02-29T07:07:30.059Z,16.71
2024-02-29T07:09:57.786Z,16.80
2024-02-29T07:12:24.460Z,16.92
2024-02-29T07:14:52.056Z,16.79
2024-02-29T07:17:18.685Z,16.35
2024-02-29T07:19:45.306Z,16.27
2024-02-29T07:22:12.289Z,16.02
2024-02-29T07:24:39.023Z,15.47
2024-02-29T07:27:05.818Z,16.16
2024-02-29T07:29:32.610Z,15.60
2024-02-29T07:31:59.193Z,15.87
2024-02-29T07:34:25.905Z,15.62
2024-02-29T07:36:52.663Z,15.28
2024-02-29T07:39:19.485Z,15.65
2024-02-29T07:41:46.437Z,15.12
2024-02-29T07:44:13.788Z,15.21
2024-02-29T07:46:40.522Z,14.60
2024-02-29T07:49:07.276Z,14.76
2024-02-29T07:51:34.063Z,14.54
2024-02-29T07:54:00.909Z,14.60
2024-02-29T07:56:29.459Z,14.68
2024-02-29T07:58:56.953Z,14.79
2024-02-29T08:01:24.726Z,14.39
2024-02-29T08:03:51.408Z,14.37
2024-02-29T08:06:18.154Z,14.20
2024-02-29T08:08:44.752Z,14.05
2024-02-29T08:11:11.472Z,13.84
2024-02-29T08:13:38.151Z,14.24
2024-02-29T08:16:05.366Z,13.98
2024-02-29T08:18:32.565Z,14.04
2024-02-29T08:20:59.257Z,14.02
2024-02-29T08:23:26.159Z,13.92
2024-02-29T08:25:52.901Z,13.98
2024-02-29T08:28:19.645Z,13.87
2024-02-29T08:30:46.463Z,13.88
2024-02-29T08:33:13.207Z,13.82
2024-02-29T08:35:40.197Z,13.66
2024-02-29T08:38:06.831Z,13.69
2024-02-29T08:40:34.434Z,13.57
2024-02-29T08:43:01.085Z,13.86
2024-02-29T08:45:27.933Z,14.16
2024-02-29T08:47:54.538Z,13.21
2024-02-29T08:50:21.188Z,13.31
2024-02-29T08:52:47.811Z,13.96
2024-02-29T08:55:14.550Z,13.61
2024-02-29T08:57:41.275Z,13.79
2024-02-29T09:00:08.391Z,13.48
2024-02-29T09:02:35.215Z,13.56
2024-02-29T09:05:01.978Z,14.06
2024-02-29T09:07:29.075Z,14.07
2024-02-29T09:09:55.819Z,13.82
2024-02-29T09:12:24.176Z,13.25
2024-02-29T09:14:50.842Z,13.61
2024-02-29T09:17:17.484Z,13.44
2024-02-29T09:19:44.268Z,13.35
2024-02-29T09:22:11.228Z,13.15
2024-02-29T09:24:38.139Z,13.80
2024-02-29T09:27:05.333Z,13.72
2024-02-29T09:29:34.351Z,13.19
2024-02-29T09:32:02.966Z,13.17
2024-02-29T09:34:29.935Z,13.03
2024-02-29T09:36:56.656Z,12.93
2024-02-29T09:39:23.846Z,13.07
2024-02-29T09:42:08.247Z,12.92
2024-02-29T09:44:38.414Z,12.75
2024-02-29T09:47:05.994Z,12.81
2024-02-29T09:49:32.973Z,12.37
2024-02-29T09:52:00.430Z,12.47
2024-02-29T09:54:31.178Z,12.62
2024-02-29T09:56:57.987Z,13.02
2024-02-29T09:59:26.202Z,12.64
2024-02-29T10:01:53.744Z,12.83
2024-02-29T10:04:20.768Z,12.71
2024-02-29T10:06:47.664Z,13.40
2024-02-29T10:09:14.348Z,13.30
2024-02-29T10:11:41.974Z,13.09
2024-02-29T10:14:28.252Z,13.21
2024-02-29T10:16:56.277Z,13.25
2024-02-29T10:19:25.749Z,13.27
2024-02-29T10:21:53.414Z,13.22
2024-02-29T10:24:21.397Z,13.16
2024-02-29T10:26:48.506Z,12.58
2024-02-29T10:29:17.814Z,12.90
2024-02-29T10:31:44.737Z,12.68
2024-02-29T10:34:12.794Z,12.58
2024-02-29T10:36:41.243Z,12.09
2024-02-29T10:39:08.832Z,12.29
2024-02-29T10:41:39.710Z,11.89
2024-02-29T10:44:10.148Z,12.37
2024-02-29T10:46:38.794Z,12.31
2024-02-29T10:49:24.211Z,12.49
2024-02-29T10:51:54.844Z,12.44
2024-02-29T10:54:31.163Z,11.99
2024-02-29T10:57:00.136Z,12.15
2024-02-29T10:59:30.036Z,12.12
2024-02-29T11:02:00.174Z,12.37
2024-02-29T11:04:27.281Z,12.34
2024-02-29T11:06:54.531Z,11.98
2024-02-29T11:09:28.275Z,12.06
2024-02-29T11:12:15.061Z,12.76
2024-02-29T11:14:46.150Z,12.61
2024-02-29T11:17:16.616Z,12.58
2024-02-29T11:19:51.743Z,12.53
2024-02-29T11:22:36.382Z,12.74
2024-02-29T11:25:13.536Z,13.02
2024-02-29T11:27:51.486Z,12.90
2024-02-29T11:30:25.054Z,12.83
2024-02-29T11:32:52.434Z,12.93
2024-02-29T11:35:19.350Z,12.43
2024-02-29T11:37:46.083Z,13.05
2024-02-29T11:40:17.119Z,12.46
2024-02-29T11:42:44.134Z,12.24
2024-02-29T11:45:21.168Z,12.86
2024-02-29T11:47:48.065Z,12.31
2024-02-29T11:50:14.702Z,12.08
2024-02-29T11:52:41.729Z,11.89
2024-02-29T11:55:09.027Z,11.99
2024-02-29T11:57:35.884Z,11.97
2024-02-29T12:00:02.633Z,11.56
2024-02-29T12:02:29.295Z,11.20
2024-02-29T12:04:55.955Z,11.52
2024-02-29T12:07:22.728Z,10.86
2024-02-29T12:09:49.502Z,10.44
2024-02-29T12:12:16.918Z,10.80
2024-02-29T12:14:48.077Z,10.34
2024-02-29T12:17:14.775Z,10.17
2024-02-29T12:19:41.978Z,9.91
2024-02-29T12:22:13.813Z,9.40
2024-02-29T12:24:43.118Z,9.24
2024-02-29T12:27:10.170Z,9.04
2024-02-29T12:29:37.066Z,8.86
2024-02-29T12:32:04.139Z,8.34
2024-02-29T12:34:30.884Z,8.19
2024-02-29T12:36:57.813Z,8.46
2024-02-29T12:39:24.574Z,8.53
2024-02-29T12:41:51.275Z,8.99
2024-02-29T12:44:17.946Z,8.71
2024-02-29T12:46:44.565Z,8.62
2024-02-29T12:49:11.209Z,8.75
2024-02-29T12:51:38.270Z,9.03
2024-02-29T12:54:04.962Z,8.83
2024-02-29T12:56:31.968Z,8.79
2024-02-29T12:58:59.179Z,8.48
2024-02-29T13:01:26.079Z,8.31
2024-02-29T13:03:53.888Z,8.40
2024-02-29T13:06:20.781Z,8.84
2024-02-29T13:08:48.814Z,8.36
2024-02-29T13:11:16.450Z,8.37
2024-02-29T13:13:43.087Z,8.29
2024-02-29T13:16:09.887Z,8.45
2024-02-29T13:18:36.560Z,8.67
2024-02-29T13:21:05.995Z,8.58
2024-02-29T13:23:33.163Z,9.10
2024-02-29T13:26:00.700Z,9.11
2024-02-29T13:28:27.542Z,9.11
2024-02-29T13:30:54.239Z,9.20
2024-02-29T13:33:20.928Z,9.66
2024-02-29T13:35:47.699Z,9.53
2024-02-29T13:38:14.391Z,9.68
2024-02-29T13:40:41.051Z,10.22
2024-02-29T13:43:08.030Z,10.72
2024-02-29T13:45:38.839Z,10.15
2024-02-29T13:48:06.117Z,10.68
2024-02-29T13:50:33.428Z,11.14
2024-02-29T13:53:00.107Z,10.95
2024-02-29T13:55:26.768Z,10.76
2024-02-29T13:57:53.946Z,11.03
2024-02-29T14:00:21.616Z,11.11
2024-02-29T14:02:48.254Z,11.94
2024-02-29T14:05:16.404Z,11.72
2024-02-29T14:07:45.722Z,11.61
2024-02-29T14:10:14.221Z,12.14
2024-02-29T14:12:41.622Z,12.11
2024-02-29T14:15:09.046Z,11.89
2024-02-29T14:17:39.572Z,12.17
2024-02-29T14:20:07.225Z,12.66
2024-02-29T14:22:36.106Z,12.36
2024-02-29T14:25:03.020Z,12.04
2024-02-29T14:27:30.164Z,12.64
2024-02-29T14:29:58.008Z,12.27
2024-02-29T14:32:24.979Z,11.74
2024-02-29T14:34:51.660Z,12.38
2024-02-29T14:37:18.443Z,12.29
2024-02-29T14:39:45.363Z,11.56
2024-02-29T14:42:12.121Z,11.46
2024-02-29T14:44:38.797Z,11.35
2024-02-29T14:47:05.731Z,11.04
2024-02-29T14:49:32.542Z,11.04
2024-02-29T14:51:59.293Z,11.19
2024-02-29T14:54:26.304Z,11.27
2024-02-29T14:56:53.093Z,11.90
2024-02-29T14:59:20.287Z,11.81
2024-02-29T15:01:47.007Z,11.91
2024-02-29T15:04:15.310Z,11.91
2024-02-29T15:06:42.155Z,12.40
2024-02-29T15:09:09.251Z,12.21
2024-02-29T15:11:36.324Z,11.93
2024-02-29T15:14:03.013Z,12.09
2024-02-29T15:16:30.276Z,11.91
2024-02-29T15:18:57.669Z,11.77
2024-02-29T15:21:24.376Z,12.03
2024-02-29T15:23:51.048Z,11.23
2024-02-29T15:26:18.136Z,10.80
2024-02-29T15:28:49.470Z,10.78
2024-02-29T15:31:16.863Z,10.26
2024-02-29T15:33:44.067Z,10.45
2024-02-29T15:36:11.106Z,10.23
2024-02-29T15:38:38.056Z,10.24
2024-02-29T15:41:04.860Z,10.45
2024-02-29T15:43:32.196Z,10.46
2024-02-29T15:45:59.150Z,10.97
2024-02-29T15:48:26.114Z,11.31
2024-02-29T15:50:52.802Z,11.42
2024-02-29T15:53:19.445Z,12.14
2024-02-29T15:55:50.860Z,12.55
2024-02-29T15:58:17.662Z,12.74
2024-02-29T16:00:44.437Z,13.57
2024-02-29T16:03:11.294Z,13.42
2024-02-29T16:05:37.940Z,13.81
2024-02-29T16:08:04.994Z,13.65
2024-02-29T16:10:32.859Z,14.22
2024-02-29T16:13:02.478Z,14.34
2024-02-29T16:15:30.554Z,13.28
2024-02-29T16:17:57.372Z,13.65
2024-02-29T16:20:24.257Z,13.70
2024-02-29T16:22:50.959Z,13.03
2024-02-29T16:25:19.395Z,12.45
2024-02-29T16:27:46.849Z,12.64
2024-02-29T16:30:14.624Z,12.17
2024-02-29T16:32:45.448Z,12.10
2024-02-29T16:35:13.498Z,12.58
2024-02-29T16:37:40.656Z,12.68
2024-02-29T16:40:07.859Z,12.84
2024-02-29T16:42:34.523Z,12.82
2024-02-29T16:45:01.233Z,12.63
2024-02-29T16:47:28.310Z,12.63
2024-02-29T16:49:55.251Z,12.82
2024-02-29T16:52:22.109Z,12.82
2024-02-29T16:54:48.961Z,13.09
2024-02-29T16:57:17.043Z,13.18
2024-02-29T16:59:43.780Z,13.31
2024-02-29T17:02:13.612Z,13.63
2024-02-29T17:04:42.026Z,13.76
2024-02-29T17:07:08.782Z,14.59
2024-02-29T17:09:37.224Z,13.41
2024-02-29T17:12:06.325Z,13.51
2024-02-29T17:14:33.027Z,13.07
2024-02-29T17:16:59.866Z,11.85
2024-02-29T17:19:26.641Z,12.93
2024-02-29T17:21:53.615Z,12.05
2024-02-29T17:24:22.956Z,12.43
2024-02-29T17:26:52.511Z,11.87
2024-02-29T17:29:25.203Z,11.95
2024-02-29T17:31:51.858Z,12.57
2024-02-29T17:34:18.491Z,13.97
2024-02-29T17:36:45.311Z,15.23
2024-02-29T17:39:12.229Z,16.20
2024-02-29T17:41:38.941Z,16.19
2024-02-29T17:44:05.693Z,15.90
2024-02-29T17:46:32.364Z,12.73
2024-02-29T17:48:59.245Z,15.29
2024-02-29T17:51:26.919Z,14.81
2024-02-29T17:53:53.568Z,14.74
2024-02-29T17:56:20.226Z,14.72
2024-02-29T17:58:50.093Z,12.70
2024-02-29T18:01:17.281Z,12.56
2024-02-29T18:03:47.175Z,13.14
2024-02-29T18:06:14.322Z,11.82
2024-02-29T18:08:41.651Z,11.70
2024-02-29T18:11:08.376Z,11.34
2024-02-29T18:13:35.028Z,11.25
2024-02-29T18:16:01.861Z,10.92
2024-02-29T18:18:28.530Z,10.79
2024-02-29T18:20:55.183Z,11.07
2024-02-29T18:23:21.969Z,10.98
2024-02-29T18:25:48.827Z,10.95
2024-02-29T18:28:18.358Z,10.60
2024-02-29T18:30:45.233Z,10.99
2024-02-29T18:33:11.913Z,11.17
2024-02-29T18:35:38.985Z,11.41
2024-02-29T18:38:05.806Z,12.14
2024-02-29T18:40:32.526Z,12.47
2024-02-29T18:42:59.214Z,12.43
2024-02-29T18:45:26.196Z,13.43
2024-02-29T18:47:52.990Z,12.66
2024-02-29T18:50:19.948Z,12.23
2024-02-29T18:52:47.470Z,12.20
2024-02-29T18:55:14.202Z,13.75
2024-02-29T18:57:41.682Z,13.93
2024-02-29T19:00:09.698Z,13.92
2024-02-29T19:02:36.518Z,14.62
2024-02-29T19:05:03.221Z,14.19
2024-02-29T19:07:29.988Z,15.94
2024-02-29T19:09:58.182Z,13.85
2024-02-29T19:12:27.154Z,13.52
2024-02-29T19:14:57.700Z,14.29
2024-02-29T19:17:24.935Z,14.67
2024-02-29T19:19:51.982Z,16.92
2024-02-29T19:22:18.755Z,15.48
2024-02-29T19:24:45.444Z,15.21
2024-02-29T19:27:12.094Z,15.44
2024-02-29T19:29:38.826Z,14.97
2024-02-29T19:32:05.664Z,14.85
2024-02-29T19:34:32.345Z,14.79
2024-02-29T19:36:59.153Z,14.67
2024-02-29T19:39:25.836Z,15.21
2024-02-29T19:41:52.582Z,15.58
2024-02-29T19:44:19.349Z,15.59
2024-02-29T19:46:47.744Z,16.43
2024-02-29T19:49:14.600Z,15.51
2024-02-29T19:51:42.212Z,15.78
2024-02-29T19:54:08.944Z,15.81
2024-02-29T19:56:35.615Z,15.58
2024-02-29T19:59:02.227Z,14.89
2024-02-29T20:01:29.194Z,14.51
2024-02-29T20:03:55.853Z,14.46
2024-02-29T20:06:22.701Z,15.01
2024-02-29T20:08:49.457Z,14.60
2024-02-29T20:11:16.218Z,14.76
2024-02-29T20:13:45.002Z,18.91
2024-02-29T20:16:12.095Z,16.26
2024-02-29T20:18:38.772Z,15.32
2024-02-29T20:21:05.929Z,15.61
2024-02-29T20:23:32.556Z,17.92
2024-02-29T20:25:59.224Z,15.09
2024-02-29T20:28:25.919Z,14.64
2024-02-29T20:30:54.675Z,14.62
2024-02-29T20:33:21.366Z,15.59
2024-02-29T20:35:48.115Z,15.02
2024-02-29T20:38:15.170Z,14.53
2024-02-29T20:40:42.022Z,15.19
2024-02-29T20:43:08.854Z,14.86
2024-02-29T20:45:35.594Z,14.51
2024-02-29T20:48:03.280Z,14.29
2024-02-29T20:50:30.306Z,14.74
2024-02-29T20:52:57.122Z,14.58
2024-02-29T20:55:24.373Z,15.14
2024-02-29T20:57:51.073Z,16.30
2024-02-29T21:00:18.200Z,16.89
2024-02-29T21:02:44.985Z,16.20
2024-02-29T21:05:11.619Z,16.96
2024-02-29T21:07:40.912Z,16.32
2024-02-29T21:10:10.116Z,15.48
2024-02-29T21:12:36.889Z,15.15
2024-02-29T21:15:04.529Z,15.13
2024-02-29T21:17:31.513Z,14.65
2024-02-29T21:19:59.326Z,14.41
2024-02-29T21:22:27.286Z,14.16
2024-02-29T21:24:54.308Z,14.24
2024-02-29T21:27:21.260Z,14.07
2024-02-29T21:29:48.048Z,13.47
2024-02-29T21:32:14.791Z,14.07
2024-02-29T21:34:44.663Z,13.68
2024-02-29T21:37:11.700Z,14.08
2024-02-29T21:39:44.373Z,13.73
2024-02-29T21:42:12.512Z,13.45
2024-02-29T21:44:39.707Z,13.13
2024-02-29T21:47:06.516Z,13.78
2024-02-29T21:49:33.185Z,13.26
2024-02-29T21:51:59.903Z,14.22
2024-02-29T21:54:26.921Z,13.96
2024-02-29T21:56:53.613Z,13.88
2024-02-29T21:59:20.270Z,14.11
2024-02-29T22:01:47.795Z,14.52
2024-02-29T22:04:14.916Z,14.09
2024-02-29T22:06:44.923Z,14.39
2024-02-29T22:09:11.866Z,14.00
2024-02-29T22:11:38.548Z,14.22
2024-02-29T22:14:05.192Z,13.60
2024-02-29T22:16:32.747Z,12.98
2024-02-29T22:18:59.524Z,13.43
2024-02-29T22:21:29.523Z,13.53
2024-02-29T22:23:57.750Z,14.27
2024-02-29T22:26:24.915Z,13.55
2024-02-29T22:28:52.772Z,12.98
2024-02-29T22:31:19.905Z,13.23
2024-02-29T22:33:46.749Z,12.97
2024-02-29T22:36:13.527Z,12.96
2024-02-29T22:38:40.681Z,13.42
2024-02-29T22:41:07.348Z,12.84
2024-02-29T22:43:34.331Z,12.87
2024-02-29T22:46:01.099Z,13.23
2024-02-29T22:48:27.851Z,12.55
2024-02-29T22:50:54.524Z,13.37
2024-02-29T22:53:22.168Z,12.92
2024-02-29T22:55:51.353Z,12.52
2024-02-29T22:58:19.903Z,12.33
2024-02-29T23:00:53.390Z,12.63
2024-02-29T23:03:22.284Z,12.88
2024-02-29T23:05:49.535Z,12.41
2024-02-29T23:08:16.730Z,12.30
2024-02-29T23:10:43.528Z,12.26
2024-02-29T23:13:11.200Z,12.19
2024-02-29T23:15:37.967Z,12.03
2024-02-29T23:18:05.325Z,12.32
2024-02-29T23:20:32.550Z,12.02
2024-02-29T23:23:00.834Z,11.87
2024-02-29T23:25:27.744Z,12.08
2024-02-29T23:27:54.626Z,11.40
2024-02-29T23:30:21.537Z,11.71
2024-02-29T23:32:48.201Z,11.62
2024-02-29T23:35:15.008Z,11.25
2024-02-29T23:37:41.720Z,11.31
2024-02-29T23:40:08.891Z,11.36
2024-02-29T23:42:35.659Z,11.66
2024-02-29T23:45:02.271Z,11.29
2024-02-29T23:47:29.021Z,10.90
2024-02-29T23:49:55.764Z,11.08
2024-02-29T23:52:22.480Z,11.07
2024-02-29T23:54:49.279Z,11.24
2024-02-29T23:57:16.700Z,11.19
2024-02-29T23:59:43.347Z,10.91
